x

9410230 - La Jolla, Ca (ljac1) Weather Station

5:54 - Sat 23rd May 2015 All times are PDT. -7 hours from GMT.

  • Wind
    6mph, 8mph gusts
  • Sea Temp 65°f
  • Air Temp 62°f
  • Sea Pressure 1018.2mb
  • 9410230 - La Jolla, Ca
  • 9410230 - La Jolla, Ca

More Historic Weather Station data

Upgrade to MSW Pro to gain access to the past 30 days of data for over 8000 Wavebouys and Weather Stations around the globe.

Join Pro

Comparision Forecast

View Surf forecast
   
sam. 05/23 5:54 6 8 mph 1018.2mb 65f 62f
5:48 7 9 mph 1018.1mb 65f 62f
5:42 8 9 mph 1018.1mb 65f 62f
5:36 7 9 mph 1018.1mb 65f 62f
5:30 6 8 mph 1018.1mb 65f 62f
5:24 8 9 mph 1018mb 65f 62f
5:18 7 9 mph 1018mb 65f 62f
5:12 7 9 mph 1018mb 65f 62f
5:06 7 9 mph 1018mb 65f 62f
5:00 9 10 mph 1018mb 65f 62f
4:54 9 11 mph 1018mb 65f 62f
4:48 9 10 mph 1018mb 65f 62f
4:42 7 9 mph 1018.1mb 65f 62f
4:36 7 9 mph 1018.1mb 65f 62f
4:30 7 8 mph 1018.1mb 65f 62f
4:24 7 9 mph 1018mb 65f 62f
4:18 7 8 mph 1018mb 65f 62f
4:12 8 9 mph 1018.1mb 65f 62f
4:06 8 10 mph 1018.1mb 65f 62f
4:00 8 11 mph 1018.1mb 65f 62f
3:54 7 9 mph 1018.1mb 65f 62f
3:48 6 8 mph 1018.2mb 65f 62f
3:42 7 9 mph 1018.1mb 65f 62f
3:36 8 9 mph 1018.2mb 65f 62f
3:30 7 9 mph 1018.2mb 65f 62f
3:24 8 10 mph 1018.2mb 65f 62f
3:18 8 10 mph 1018.2mb 65f 62f
3:12 9 10 mph 1018.2mb 65f 61f
3:06 2 3 mph 1018.2mb 65f 61f
3:00 2
mph
1018.2mb 65f 61f
2:54 1 3 mph 1018.2mb 65f 61f
2:48 3 6 mph 1018.2mb 65f 61f
2:42 6 8 mph 1018.2mb 65f 60f
2:36 7
mph
1018.2mb 65f 60f
2:30 6 7 mph 1018.2mb 65f 60f
2:24 6 9 mph 1018.3mb 65f 60f
2:18 7 11 mph 1018.2mb 65f 60f
2:12 10 13 mph 1018.2mb 65f 60f
2:06 10 13 mph 1018.2mb 65f 61f
2:00 10 13 mph 1018.2mb 65f 60f
1:54 10 13 mph 1018.2mb 65f 61f
1:48 10 14 mph 1018.2mb 65f 61f
1:42 8 10 mph 1018.2mb 65f 62f
1:36 8 10 mph 1018.2mb 65f 62f
1:30 8 9 mph 1018.2mb 65f 62f
1:24 7 9 mph 1018.3mb 65f 62f
1:18 8 9 mph 1018.3mb 65f 62f
1:12 7 8 mph 1018.3mb 65f 62f
1:06 6 10 mph 1018.3mb 65f 62f
1:00 8 9 mph 1018.4mb 65f 62f
12:54 8 9 mph 1018.3mb 65f 62f
12:48 6 8 mph 1018.3mb 65f 62f
12:42 5 6 mph 1018.3mb 65f 62f
12:36 3 5 mph 1018.3mb 65f 62f
12:30 3 6 mph 1018.3mb 65f 62f
12:24 5 8 mph 1018.3mb 65f 62f
12:18 6 7 mph 1018.3mb 65f 62f
12:12 6 7 mph 1018.3mb 65f 62f
12:06 6 7 mph 1018.3mb 65f 62f
12:00 5 7 mph 1018.3mb 65f 62f
ven. 05/22 11:54 6 8 mph 1018.4mb 65f 61f
11:48 7 8 mph - 65f 62f
11:42 6 8 mph - 65f 62f
11:36 6 9 mph - 65f 62f
11:30 6 9 mph 1018.5mb 65f 62f
11:24 7 9 mph 1018.5mb 65f 62f
11:18 7 9 mph 1018.5mb 65f 62f
11:12 7 9 mph 1018.5mb 65f 62f
11:06 7 8 mph 1018.6mb 65f 62f
11:00 6 9 mph 1018.7mb 65f 62f
10:54 8 9 mph 1018.7mb 65f 62f
10:48 8 9 mph 1018.8mb 65f 62f
10:42 6 7 mph 1018.9mb 65f 62f
10:36 6 8 mph 1019mb 65f 62f
10:30 7 9 mph 1018.9mb 65f 62f
10:24 7 8 mph 1019mb 65f 62f
10:18 7 9 mph 1019mb 65f 62f
10:12 6 10 mph 1019mb 65f 62f
10:06 7 9 mph 1019mb 66f 62f
10:00 9 10 mph 1019mb 66f 62f
9:54 7 9 mph 1018.9mb 66f 62f
9:48 7 9 mph 1018.9mb 66f 62f
9:42 8 10 mph 1018.9mb 66f 62f
9:36 8 9 mph 1018.8mb 65f 62f
9:30 8 9 mph 1018.8mb 66f 62f
9:24 8 9 mph 1018.9mb 66f 62f
9:18 7 9 mph 1018.8mb 66f 62f
9:12 9 10 mph 1018.7mb 66f 62f
9:06 8 10 mph 1018.6mb 66f 62f
9:00 8 9 mph 1018.6mb 65f 62f
8:54 7 9 mph 1018.5mb 66f 62f
8:48 7 8 mph 1018.4mb 66f 62f
8:42 8 10 mph 1018.4mb 65f 62f
8:36 9 10 mph 1018.5mb 65f 62f
8:30 7 11 mph 1018.4mb 66f 62f
8:24 8 10 mph 1018.3mb 66f 62f
8:18 9 11 mph 1018.3mb 66f 62f
8:12 9 13 mph 1018.3mb 66f 62f
8:06 8 11 mph 1018.2mb 66f 62f
8:00 9 13 mph 1018.1mb 66f 62f
7:54 9 11 mph 1018mb 66f 62f
7:48 8 10 mph 1018mb 66f 62f
7:42 7 10 mph 1018mb 66f 62f
7:36 8 10 mph 1017.9mb 66f 62f
7:30 7 10 mph 1017.8mb 66f 62f
7:24 7 9 mph 1017.8mb 66f 63f
7:18 6 8 mph 1017.8mb 66f 62f
7:12 7 8 mph 1017.7mb 66f 62f
7:06 7 8 mph 1017.7mb 66f 62f
7:00 7 9 mph 1017.7mb 66f 62f
6:54 6 9 mph 1017.6mb 66f 63f
6:48 6 8 mph 1017.5mb 66f 63f
6:42 7 8 mph 1017.5mb 66f 63f
6:36 6 8 mph 1017.5mb 66f 63f
6:30 8 9 mph 1017.6mb 66f 62f
6:24 7 9 mph 1017.6mb 66f 62f
6:18 7 9 mph 1017.6mb 66f 63f
6:12 7 9 mph 1017.5mb 66f 63f
6:06 7 9 mph 1017.5mb 66f 63f
6:00 7 8 mph 1017.5mb 66f 63f
5:54 8 9 mph 1017.5mb 66f 63f
5:48 7 11 mph 1017.5mb 66f 63f
5:42 9 10 mph 1017.5mb 66f 63f
5:36 9 10 mph 1017.5mb 66f 63f
5:30 9 11 mph 1017.4mb 66f 63f
5:24 7 10 mph 1017.4mb 66f 63f
5:18 8 10 mph 1017.4mb 65f 63f
5:12 9 10 mph 1017.4mb 66f 62f
5:06 7 9 mph 1017.4mb 66f 63f
5:00 7 9 mph 1017.3mb 65f 63f
4:54 7 10 mph 1017.3mb 65f 63f
4:48 8 9 mph 1017.3mb 65f 62f
4:42 8 9 mph 1017.2mb 65f 62f
4:36 7 9 mph 1017.2mb 65f 62f
4:30 6 8 mph 1017.2mb 65f 62f
4:24 6 8 mph 1017.1mb 65f 62f
4:18 6 8 mph 1017.2mb 65f 62f
4:12 7 8 mph 1017.2mb 65f 62f
4:06 6 7 mph 1017.2mb 65f 62f
4:00 7 10 mph 1017.2mb 65f 62f
3:54 6 9 mph 1017.2mb 65f 62f
3:48 9 10 mph 1017.2mb 65f 62f
3:42 10 13 mph 1017.2mb 65f 61f
3:36 10 14 mph 1017.3mb 65f 62f
3:30 5 6 mph 1017.3mb 65f 62f
3:24 3 6 mph 1017.3mb 65f 61f
3:18 6
mph
1017.3mb 65f 61f
3:12 5 6 mph 1017.4mb 65f 60f
3:06 5 8 mph 1017.4mb 65f 60f
3:00 8 9 mph 1017.5mb 65f 60f
2:54 8 10 mph 1017.6mb 66f 60f
2:48 10 14 mph 1017.7mb 66f 60f
2:42 11 14 mph 1017.7mb 66f 60f
2:36 9 11 mph 1017.6mb 66f 61f
2:30 11 16 mph 1017.7mb 65f 61f
2:24 9
mph
1017.6mb 65f 63f
2:18 7 10 mph 1017.5mb 65f 63f
2:12 8 9 mph 1017.5mb 65f 63f
2:06 8 9 mph 1017.5mb 65f 63f
2:00 9 10 mph 1017.5mb 65f 63f
1:54 9 10 mph 1017.5mb 65f 63f
1:48 8 10 mph 1017.5mb 65f 63f
1:42 7 10 mph 1017.5mb 65f 63f
1:36 8 10 mph 1017.6mb 65f 63f
1:30 8 9 mph 1017.6mb 65f 63f
1:24 9 10 mph 1017.6mb 65f 62f
1:18 8 9 mph 1017.5mb 65f 63f
1:12 9 10 mph 1017.6mb 65f 62f
1:06 9 11 mph 1017.6mb 65f 62f
1:00 8 11 mph 1017.7mb 65f 63f
12:54 9 11 mph 1017.7mb 65f 63f
12:48 9 11 mph 1017.8mb 65f 63f
12:42 9 13 mph 1017.8mb 65f 63f
12:36 10 11 mph 1017.8mb 65f 62f
12:30 9 11 mph 1017.7mb 65f 62f
12:24 8 10 mph 1017.8mb 65f 63f
12:18 9 10 mph 1017.8mb 65f 62f
12:12 8 10 mph 1017.9mb 65f 62f
12:06 7 11 mph 1017.9mb 65f 63f
12:00 9 11 mph 1017.9mb 65f 62f
11:54 8 9 mph 1017.8mb 65f 62f
11:48 7 9 mph 1017.8mb 65f 62f
11:42 6 9 mph 1017.8mb 65f 63f
11:36 7 8 mph 1017.7mb 65f 63f
11:30 7 8 mph 1017.8mb 65f 63f
11:24 6 8 mph 1017.8mb 65f 63f
11:18 5 6 mph 1017.7mb 65f 63f
11:12 6 7 mph 1017.7mb 65f 63f
11:06 7 8 mph 1017.8mb 65f 62f
11:00 6 9 mph 1017.8mb 65f 62f
10:54 8 10 mph 1017.7mb 65f 62f
10:48 7 8 mph 1017.7mb 65f 62f
10:42 7 8 mph 1017.7mb 65f 62f
10:36 6 8 mph 1017.6mb 65f 62f
10:30 5 8 mph 1017.6mb 65f 62f
10:24 6 9 mph 1017.5mb 65f 62f
10:18 8 10 mph 1017.6mb 65f 62f
10:12 8 10 mph 1017.6mb 65f 62f
10:06 7 10 mph 1017.5mb 65f 62f
10:00 8 11 mph 1017.5mb 64f 61f
9:54 9 11 mph 1017.5mb 64f 62f
9:48 10 13 mph 1017.5mb 64f 62f
9:42 10 13 mph 1017.5mb 64f 61f
9:36 11 13 mph 1017.5mb 64f 61f
9:30 9 13 mph 1017.4mb 64f 61f
9:24 9 13 mph 1017.3mb 64f 61f
9:18 9 13 mph 1017.3mb 64f 61f
9:12 10 13 mph 1017.3mb 64f 61f
9:06 10 15 mph 1017.3mb 64f 61f
9:00 13 17 mph 1017.2mb 64f 61f
8:54 13 15 mph 1017.3mb 64f 62f
8:48 13 15 mph 1017.2mb 64f 61f
8:42 9 15 mph 1017.2mb 64f 62f
8:36 13 14 mph 1017.2mb 64f 61f
8:30 9 14 mph 1017.1mb 64f 62f
8:24 10 13 mph 1017.1mb 64f 61f
8:18 10 14 mph 1017.1mb 64f 62f
8:12 10 14 mph 1017mb 64f 62f
8:06 11 14 mph 1017.1mb 64f 61f
8:00 11 14 mph 1017mb 64f 61f
7:54 8 13 mph 1017mb 64f 62f
7:48 9 11 mph 1017mb 64f 62f
7:42 10 14 mph 1016.9mb 64f 61f
7:36 13 14 mph 1016.9mb 64f 61f
7:30 13 15 mph 1016.9mb 64f 61f
7:24 11 14 mph 1016.8mb 64f 61f
7:18 11 14 mph 1016.7mb 64f 61f
7:12 11 15 mph 1016.6mb 64f 61f
7:06 10 14 mph 1016.6mb 64f 62f
7:00 14 15 mph 1016.5mb 64f 61f
6:54 13 15 mph 1016.5mb 64f 61f
6:48 10 14 mph 1016.5mb 64f 61f
6:42 11 14 mph 1016.4mb 64f 61f
6:36 10 15 mph 1016.4mb 64f 61f
6:30 9 15 mph 1016.3mb 64f 61f
6:24 13 14 mph 1016.2mb 64f 61f
6:18 13 16 mph 1016.2mb 64f 61f
6:12 8 11 mph 1016.2mb 64f 61f
6:06 8 13 mph 1016.1mb 64f 61f
6:00 10 14 mph 1016mb 64f 61f
5:54 11 13 mph 1016mb 64f 61f
5:48 11 14 mph 1016mb 64f 61f
5:42 10 13 mph 1015.9mb 64f 60f
5:36 13 15 mph 1015.9mb 64f 60f
5:30 13 16 mph 1015.8mb 64f 61f
5:24 13 15 mph 1015.8mb 64f 60f
5:18 15 17 mph 1015.8mb 64f 60f
5:12 14 18 mph 1015.8mb 64f 60f
5:06 16 18 mph 1015.8mb 64f 60f
5:00 17 20 mph 1015.8mb 64f 61f
4:54 15 18 mph 1015.7mb 64f 61f
4:48 15 17 mph 1015.8mb 64f 61f
4:42 14 18 mph 1015.8mb 64f 61f
4:36 11 16 mph 1015.7mb 64f 61f
4:30 13 16 mph 1015.7mb 64f 61f
4:24 14 16 mph 1015.8mb 64f 61f
4:18 13 15 mph 1015.7mb 64f 61f
4:12 13 15 mph 1015.7mb 64f 61f
4:06 14 16 mph 1015.7mb 64f 61f
4:00 11 16 mph 1015.7mb 64f 61f
3:54 14 17 mph 1015.8mb 64f 61f
3:48 14 16 mph 1015.7mb 64f 61f
3:42 14 16 mph 1015.8mb 64f 61f
3:36 14 16 mph 1015.7mb 64f 61f
3:30 14 15 mph 1015.7mb 64f 61f
3:24 14 16 mph 1015.7mb 64f 61f
3:18 10 13 mph 1015.7mb 64f 61f
3:12 10 11 mph 1015.6mb 64f 61f
3:06 10 11 mph 1015.6mb 64f 61f
3:00 9 11 mph 1015.6mb 64f 61f
2:54 10 13 mph 1015.7mb 64f 61f
2:48 9 13 mph 1015.7mb 64f 61f
2:42 9 14 mph 1015.7mb 64f 61f
2:36 13 15 mph 1015.8mb 64f 61f
2:30 14 15 mph 1015.8mb 64f 61f
2:24 14 16 mph 1015.9mb 64f 61f
2:18 13 16 mph 1015.9mb 64f 62f
2:12 14 16 mph 1015.9mb 64f 61f
2:06 14 16 mph 1015.9mb 64f 61f
2:00 14 17 mph 1015.9mb 64f 62f
1:54 15 17 mph 1016mb 64f 61f
1:48 14 17 mph 1016mb 64f 61f
1:42 14 17 mph 1016mb 64f 61f
1:36 16 18 mph 1016mb 64f 61f
1:30 13 17 mph 1016.1mb 64f 62f
1:24 14 16 mph 1016.1mb 64f 62f
1:18 14 17 mph 1016.1mb 64f 61f
1:12 15 16 mph 1016.2mb 64f 62f
1:06 15 18 mph 1016.2mb 64f 61f
1:00 15 17 mph 1016.2mb 64f 61f
12:54 14 15 mph 1016.3mb 64f 61f
12:48 13 15 mph 1016.3mb 64f 61f
12:42 13 16 mph 1016.3mb 64f 61f
12:36 11 16 mph 1016.4mb 64f 61f
12:30 13 16 mph 1016.4mb 64f 61f
12:24 14 16 mph 1016.4mb 64f 62f
12:18 14 16 mph 1016.4mb 64f 61f
12:12 15 17 mph 1016.3mb 64f 61f
12:06 13 16 mph 1016.3mb 64f 61f
12:00 14 16 mph 1016.3mb 64f -
jeu. 05/21 11:54 14 16 mph 1016.2mb 64f -
11:48 13 15 mph 1016.2mb 64f 62f
11:42 13 15 mph 1016.2mb 64f 61f
11:36 13 20 mph 1016.2mb 64f 61f
11:30 14 16 mph 1016.2mb 64f 61f
11:24 13 15 mph 1016.2mb 64f 61f
11:18 13 14 mph 1016.3mb 64f 61f
11:12 11 14 mph 1016.3mb 64f 62f
11:06 11 15 mph 1016.3mb 64f 62f
11:00  -  mph 1016.3mb 64f 61f
10:54  -  mph 1016.3mb 64f 61f
10:48 13 15 mph 1016.4mb 64f 62f
10:42 10 13 mph 1016.3mb 64f 61f
10:36 10 13 mph 1016.3mb 64f 62f
10:30 11 14 mph 1016.3mb 64f 61f
10:24 10 13 mph 1016.3mb 64f 61f
10:18 10 14 mph 1016.3mb 64f 62f
10:12 13 15 mph 1016.3mb 64f 61f
10:06 13 15 mph 1016.3mb 64f 61f
10:00 11 15 mph 1016.2mb 65f 61f
9:54 13 16 mph 1016.2mb 65f 61f
9:48 13 16 mph 1016.1mb 65f 61f
9:42 11 14 mph 1016mb 65f 62f
9:36 11 14 mph 1016mb 65f 62f
9:30 13 15 mph 1015.9mb 65f 61f
9:24 11 14 mph 1015.9mb 65f 61f
9:18 11 14 mph 1015.9mb 65f 61f
9:12 11 14 mph 1015.8mb 65f 62f
9:06 11 14 mph 1015.8mb 65f 61f
9:00 13 15 mph 1015.7mb 65f 61f
8:54 13 16 mph 1015.7mb 65f 61f
8:48 9 13 mph 1015.7mb 65f 62f
8:42 10 13 mph 1015.7mb 65f 61f
8:36 10 11 mph 1015.6mb 65f 61f
8:30 11 13 mph 1015.6mb 65f 61f
8:24 9 11 mph 1015.6mb 65f 62f
8:18 8 10 mph 1015.5mb 65f 62f
8:12 8 10 mph 1015.5mb 65f 62f
8:06 9 10 mph 1015.5mb 65f 61f
8:00 9 10 mph 1015.5mb 65f 61f
7:54 9 10 mph 1015.4mb 65f 61f
7:48 8 10 mph 1015.3mb 65f 62f
7:42 10 13 mph 1015.4mb 65f 62f
7:36 10 13 mph 1015.4mb 65f 62f
7:30 11 14 mph 1015.4mb 65f 62f
7:24 10 13 mph 1015.3mb 65f 62f
7:18 9 11 mph 1015.2mb 65f 62f
7:12 9 10 mph 1015mb 65f 62f
7:06 9 11 mph 1015.1mb 65f 61f
7:00 9 11 mph 1015mb 65f 61f
6:54 9 11 mph 1015mb 65f 61f
6:48 10 13 mph 1015.1mb 65f 61f
6:42 11 15 mph 1015.1mb 65f 61f
6:36 13 16 mph 1015.1mb 65f 61f
6:30 13 14 mph 1015.1mb 65f 61f
6:24 13 14 mph 1014.9mb 65f 61f
6:18 13 14 mph 1014.8mb 65f 61f
6:12 10 13 mph 1014.7mb 65f 61f
6:06 11 13 mph 1014.7mb 65f 61f
6:00 10 14 mph 1014.6mb 65f 61f
5:54 10 13 mph 1014.6mb 65f 61f
5:48 10 11 mph 1014.7mb 65f 61f
5:42 10 13 mph 1014.7mb 65f 61f
5:30 13 14 mph 1014.7mb 65f 61f
5:18 10 15 mph 1014.6mb 65f 62f
5:12 10 14 mph 1014.7mb 65f 61f
5:00 10 14 mph 1014.6mb 65f 62f
4:54 11 15 mph 1014.7mb 65f 62f
4:48 13 15 mph 1014.7mb 65f 62f
4:42 13 14 mph 1014.7mb 65f 62f
4:36 11 14 mph 1014.6mb 65f 61f
4:30 11 13 mph 1014.6mb 65f 62f
4:24 11 14 mph 1014.7mb 65f 61f
4:18 10 13 mph 1014.7mb 65f 61f
4:12 11 13 mph 1014.7mb 65f 61f
4:06 10 15 mph 1014.7mb 65f 61f
4:00 14 15 mph 1014.8mb 65f 61f
3:54 10 11 mph 1014.8mb 65f 62f
3:48 10 11 mph 1014.9mb 65f 62f
3:42 9 13 mph 1014.9mb 65f 62f
3:36 10 13 mph 1015mb 65f 62f
3:30 10 11 mph 1015mb 65f 62f
3:24 11 15 mph 1015.1mb 65f 62f
3:18 11 14 mph 1015.2mb 65f 62f
3:12 11 14 mph 1015.2mb 65f 62f
3:06 13 14 mph 1015.3mb 65f 62f
3:00 11 14 mph 1015.4mb 65f 62f
2:54 11 15 mph 1015.4mb 65f 62f
2:48 13 15 mph 1015.5mb 65f 62f
2:42 11 15 mph 1015.5mb 65f 62f
2:36 13 14 mph 1015.5mb 65f 62f
2:30 10 14 mph 1015.5mb 65f 62f
2:24 10 13 mph 1015.4mb 65f 62f
2:18 10 14 mph 1015.5mb 65f 62f
2:12 13 14 mph 1015.5mb 65f 62f
2:06 10 11 mph 1015.5mb 65f 62f
2:00 11 13 mph 1015.5mb 65f 62f
1:54 8 13 mph 1015.5mb 65f 62f
1:48 9 13 mph 1015.6mb 64f 62f
1:42 10 13 mph 1015.6mb 64f 62f
1:36 10 14 mph 1015.6mb 64f 62f
1:30 10 11 mph 1015.6mb 64f 62f
1:24 11 13 mph 1015.6mb 64f 62f
1:18 10 13 mph 1015.7mb 64f 62f
1:12 10 13 mph 1015.7mb 64f 62f
1:06 11 13 mph 1015.8mb 64f 62f
1:00 10 11 mph 1015.8mb 64f 61f
12:54 9 13 mph 1015.8mb 64f 62f
12:48 10 13 mph 1015.8mb 64f 61f
12:42 9 11 mph 1015.8mb 64f 62f
12:36 8 9 mph 1015.7mb 64f 62f
12:30 9 10 mph 1015.8mb 64f 62f
12:24 9 11 mph 1015.9mb 64f 61f
12:18 8 11 mph 1015.9mb 64f 61f
12:12 8 10 mph 1015.8mb 64f 62f
12:06 9
mph
1015.8mb 64f 62f
12:00 8 10 mph 1015.7mb 64f 62f
11:54 9 10 mph 1015.7mb 64f 61f
11:48 9 10 mph 1015.7mb 64f 61f
11:42 8 10 mph 1015.7mb 64f 62f
11:36 8 9 mph 1015.7mb 64f 61f
11:30 7 9 mph 1015.6mb 64f 61f
11:24 7 9 mph 1015.5mb 64f 61f
11:18 7 8 mph 1015.5mb 64f 61f
11:12 6 7 mph 1015.5mb 64f 61f
11:06 6 8 mph 1015.6mb 64f 61f
11:00 6 8 mph 1015.5mb 64f 61f
10:54 8 9 mph 1015.5mb 64f 61f
10:48 6 8 mph 1015.3mb 64f 61f
10:42 6 9 mph 1015.3mb 64f 61f
10:36 7 9 mph 1015.3mb 64f 61f
10:30 6 9 mph 1015.3mb 64f 61f
10:24 6 8 mph 1015.3mb 64f 61f
10:18 7 8 mph 1015.3mb 64f 61f
10:12 7 8 mph 1015.2mb 64f 61f
10:06 6 7 mph 1015.2mb 64f 60f
10:00 7 9 mph 1015.2mb 64f 60f
9:54 8 9 mph 1015.2mb 64f 60f
9:48 8 10 mph 1015.2mb 64f 60f
9:42 9 11 mph 1015.2mb 64f 60f
9:36 9 11 mph 1015.2mb 64f 60f
9:30 10 13 mph 1015.1mb 64f 61f
9:24 7 8 mph 1015.1mb 64f 61f
9:18 8 10 mph 1015.1mb 64f 61f
9:12 8 9 mph 1015.1mb 64f 61f
9:06 8 10 mph 1015.1mb 64f 61f
9:00 8 10 mph 1015.1mb 64f 61f
8:54 9 10 mph 1015mb 64f 61f
8:48 7 9 mph 1015mb 64f 61f
8:42 8 9 mph 1015mb 64f 61f
8:36 8
mph
1015mb 64f 61f
8:30 8
mph
1015mb 64f 61f
8:24 7 8 mph 1015mb 64f 61f
8:18 7 9 mph 1015mb 64f 61f
8:12 8 9 mph 1014.9mb 64f 61f
8:06 8 10 mph 1014.9mb 64f 61f
8:00 7 8 mph 1014.8mb 64f 61f
7:54 3
mph
1014.8mb 64f 61f
7:48 3 5 mph 1014.8mb 64f 61f
7:42 5 6 mph 1014.9mb 64f 61f
7:36 5 7 mph 1014.9mb 64f 61f
7:30 7 8 mph 1014.9mb 64f 61f
7:24 6 7 mph 1014.8mb 64f 61f
7:18 7
mph
1014.8mb 64f 61f
7:12 6 9 mph 1014.8mb 64f 61f
7:06 7 9 mph 1014.8mb 64f 60f
7:00 7 9 mph 1014.7mb 64f 60f
6:54 6 8 mph 1014.7mb 64f 60f
6:48 8
mph
1014.7mb 64f 60f
6:42 8 9 mph 1014.7mb 64f 60f
6:36 7 8 mph 1014.7mb 64f 60f
6:30 7 9 mph 1014.6mb 64f 60f
6:24 7 9 mph 1014.5mb 64f 60f
6:18 7 9 mph 1014.5mb 64f 60f
6:12 7 8 mph 1014.4mb 64f 60f
6:06 6 8 mph 1014.4mb 64f 60f
6:00 7 8 mph 1014.3mb 64f 60f
5:54 6 8 mph 1014.3mb 64f 60f
5:48 6 8 mph 1014.2mb 64f 60f
5:42 6 8 mph 1014.2mb 64f 60f
5:36 6 9 mph 1014.2mb 64f 60f
5:30 6 7 mph 1014.2mb 64f 60f
5:24 7 8 mph 1014.1mb 64f 60f
5:18 6 8 mph 1014.1mb 64f 60f
5:12 7 8 mph 1014.1mb 64f 60f
5:06 6 9 mph 1014.1mb 64f 60f
5:00 7 9 mph 1014.1mb 64f 60f
4:54 7 8 mph 1014.2mb 64f 60f
4:48 7 8 mph 1014.3mb 64f 60f
4:42 6 8 mph 1014.3mb 64f 60f
4:36 5 8 mph 1014.2mb 64f 60f
4:30 5 7 mph 1014.2mb 64f 60f
4:24 6 8 mph 1014.2mb 64f 60f
4:18 6 8 mph 1014.2mb 64f 60f
4:12 6 8 mph 1014.3mb 64f 60f
4:06 7 10 mph 1014.3mb 64f 60f
4:00 7 9 mph 1014.3mb 64f 60f
3:54 7 8 mph 1014.3mb 64f 60f
3:48 7 9 mph 1014.3mb 64f 60f
3:42 8
mph
1014.3mb 64f 60f
3:36 7 9 mph 1014.4mb 64f 60f
3:30 7 9 mph 1014.4mb 64f 60f
3:24 8 9 mph 1014.4mb 64f 60f
3:18 7 10 mph 1014.4mb 64f 60f
3:12 7 9 mph 1014.3mb 64f 60f
3:06 6 8 mph 1014.4mb 64f 60f
3:00 7 9 mph 1014.5mb 64f 60f
2:54 7 9 mph 1014.5mb 64f 60f
2:48 8 10 mph 1014.5mb 64f 60f
2:42 9 10 mph 1014.5mb 64f 60f
2:36 8 9 mph 1014.5mb 64f 60f
2:30 8 10 mph 1014.6mb 64f 61f
2:24 7 10 mph 1014.6mb 64f 61f
2:18 6 9 mph 1014.6mb 64f 61f
2:12 7 9 mph 1014.7mb 63f 60f
2:06 7 9 mph 1014.8mb 63f 61f
2:00 8 9 mph 1014.8mb 63f 61f
1:54 8 10 mph 1014.8mb 63f 60f
1:48 8 9 mph 1014.9mb 63f 61f
1:42 9 10 mph 1015mb 63f 61f
1:36 9 10 mph 1015.1mb 63f 61f
1:30 9 10 mph 1015mb 63f 60f
1:24 8 10 mph 1015.1mb 63f 61f
1:18 9 10 mph - - -
1:00 8 10 mph 1015.2mb 64f 61f
12:54 8 10 mph 1015.2mb 63f 61f
12:48 9 10 mph 1015.3mb 63f 61f
12:42 9 10 mph 1015.3mb 63f 61f
12:36 8 10 mph 1015.3mb 63f 61f
12:30 7 10 mph 1015.3mb 63f 61f
12:24 8 10 mph 1015.3mb 63f 61f
12:18 8 11 mph 1015.3mb 63f 61f
12:12 11
mph
1015.3mb 63f 61f
12:06 10 13 mph 1015.3mb 63f 60f
12:00 11 13 mph 1015.3mb 63f 61f
mer. 05/20 11:54 10 11 mph 1015.3mb 63f 61f
11:36  -  mph 1015.3mb - -
11:24 8 9 mph 1015.3mb 63f 61f
10:54 6 7 mph 1015.3mb 64f 61f
10:48 5 6 mph 1015.3mb 63f 61f
10:42 5 6 mph 1015.4mb 63f 61f
10:36 3 5 mph 1015.4mb 64f 61f
10:30 3 5 mph 1015.4mb 64f 61f
10:24 5
mph
1015.4mb 64f 61f
10:18 2 3 mph 1015.3mb 64f 61f
10:12  -  2 mph 1015.3mb 64f 61f
10:06 2
mph
1015.2mb 64f 61f
10:00 1 5 mph 1015.1mb 64f 61f
9:54 3 5 mph 1015mb 64f 61f
9:48 3 5 mph 1015mb 64f 61f
9:42 3 5 mph 1014.9mb 64f 61f
9:36 2 3 mph 1014.9mb 64f 61f
9:30 3 5 mph 1014.9mb 64f 61f
9:24 3 5 mph 1014.9mb 64f 61f
9:18 1 3 mph 1014.8mb 64f 61f
9:12 3 6 mph 1014.9mb 64f 61f
9:00 5 6 mph 1014.9mb 64f 61f
8:54 3 5 mph 1014.8mb 64f 61f
8:48 3 6 mph - - -
8:42 5 6 mph 1014.8mb 64f 61f
8:36 5 6 mph 1014.8mb 65f 61f
8:30 2 5 mph 1014.7mb 65f 61f
8:24 3 6 mph 1014.7mb 65f 61f
8:18 3 5 mph 1014.7mb - -
8:12 2 6 mph 1014.6mb 65f 61f
8:06 6 7 mph 1014.7mb 65f 61f
8:00 5 6 mph 1014.6mb 65f 61f
7:54 5 6 mph 1014.6mb 65f 61f
7:48 5 6 mph 1014.6mb 64f 61f
7:42 5 6 mph 1014.5mb 64f 61f
7:36 6 7 mph 1014.5mb 64f 61f
7:30 6 7 mph 1014.5mb 64f 61f
7:24 7 8 mph 1014.5mb 64f 61f
7:18 7 9 mph 1014.4mb 64f 61f
7:12 6 8 mph 1014.4mb 64f 61f
7:06 7 10 mph 1014.4mb 64f 61f
7:00 8 10 mph 1014.3mb 64f 61f
6:48 9 10 mph 1014.3mb 64f 61f
6:42 9 11 mph 1014.3mb 65f 61f
6:36 9 10 mph 1014.2mb 65f 61f
6:30 6 8 mph 1014.2mb 65f 62f
6:24 7 9 mph 1014.1mb 65f 62f
6:06 5 8 mph 1014.1mb 65f 62f
6:00 6 7 mph 1014.2mb 65f 62f
5:54 6 9 mph 1014.2mb 65f 62f
5:48 7 8 mph 1014.2mb 65f 62f
5:42 7 8 mph 1014.2mb 65f 62f
5:36 6 9 mph 1014.2mb 65f 62f
5:30 8 9 mph 1014.2mb 65f 62f
5:24 7 9 mph 1014.3mb 65f 62f
5:18 8
mph
1014.3mb 65f 62f
5:12 7 9 mph 1014.4mb 65f 62f
5:06 8 9 mph 1014.4mb 65f 62f
5:00 8 9 mph 1014.4mb 64f 62f
4:48 8 13 mph 1014.5mb 64f 62f
4:42 9 11 mph 1014.6mb 64f 62f
4:36 9 11 mph 1014.6mb 64f 62f
4:30 8 10 mph 1014.6mb 64f 62f
4:24 7 9 mph 1014.6mb 64f 62f
4:18 8 9 mph 1014.6mb 64f 62f
4:12 8 10 mph 1014.6mb 64f 62f
4:06 8 10 mph 1014.6mb 64f 62f
4:00 8 10 mph 1014.6mb 65f 62f
3:54 8 10 mph 1014.6mb 65f 62f
3:48 8 9 mph 1014.6mb 65f 62f
3:42 8 9 mph 1014.6mb 65f 62f
3:36 7 9 mph 1014.7mb 65f 62f
3:30 9 13 mph 1014.7mb 65f 62f
3:24 9 10 mph 1014.8mb 65f 62f
3:18 8 10 mph 1014.8mb 64f 62f
3:12 7 9 mph 1014.9mb 65f 62f
3:06 7 9 mph 1014.9mb 65f 62f
3:00 8 9 mph 1014.9mb 65f 62f
2:54 8 10 mph 1014.9mb 64f 62f
2:48 8 9 mph 1014.9mb - -
2:42 8 9 mph 1014.9mb 65f 62f
2:36 8 11 mph 1014.9mb 64f 62f
2:30 8 10 mph 1014.9mb 64f 62f
2:24 8 9 mph 1015mb 64f 62f
2:18 8 10 mph - - -
2:12 9 10 mph 1015mb 64f 62f
2:06 9 10 mph 1015mb 64f 62f
2:00 9 11 mph 1015.1mb 64f 62f
1:54 8 11 mph 1015mb 64f 62f
1:48 9 10 mph - - -
1:42 9 13 mph 1015.2mb 64f 62f
1:36 9 11 mph 1015.2mb 64f 62f
1:30 8 10 mph 1015.3mb 64f 62f
1:24 9 11 mph 1015.3mb 64f 62f
1:18 8 10 mph 1015.3mb 64f 62f
1:12 9 11 mph 1015.4mb 64f 62f
1:06 8 10 mph 1015.4mb 64f 61f
1:00 8 9 mph 1015.3mb 64f 62f
12:54 9 10 mph 1015.4mb 64f 61f
12:36 9 10 mph 1015.5mb 64f 61f
12:30 8 10 mph 1015.5mb 64f 62f
12:24 8 10 mph 1015.5mb 64f 61f
12:18 8 10 mph 1015.5mb - -
12:12 8 10 mph 1015.5mb 64f 62f
12:06 8 10 mph 1015.5mb 64f 61f
12:00 8 9 mph 1015.5mb 64f 62f
11:54 8 10 mph 1015.6mb 64f 62f
11:36 8 9 mph 1015.6mb 64f 62f
11:30 8 9 mph 1015.6mb 64f 61f
11:24 9 11 mph 1015.6mb 63f 61f
11:18 9 11 mph - - -
11:12 8 9 mph 1015.6mb 63f 61f
11:06 8 10 mph 1015.5mb 63f 61f
11:00 7 10 mph 1015.5mb 63f 61f
10:54 7 9 mph 1015.5mb 64f 61f
10:36 6 9 mph 1015.5mb 63f 61f
10:30 6 7 mph 1015.5mb 63f 62f
10:24 6 7 mph 1015.5mb 63f 61f
10:18 6 8 mph 1015.5mb 63f 61f
10:12 6 8 mph 1015.5mb 63f 61f
10:06 6 8 mph 1015.5mb 63f 61f
10:00 7 8 mph 1015.5mb 63f 61f
9:54 7 8 mph 1015.4mb 63f 61f
9:48 6 7 mph 1015.4mb 63f 61f
9:42 3 6 mph 1015.3mb 63f 62f
9:36 3 6 mph 1015.2mb 63f 61f
9:30 6 8 mph 1015.3mb 63f 61f
9:24 8 9 mph 1015.4mb 63f 60f
9:18 9 10 mph 1015.4mb 63f 61f
9:12 8 9 mph 1015.4mb 63f 61f
9:06 8 9 mph 1015.4mb 64f 61f
9:00 8 10 mph 1015.4mb 63f 61f
8:54 8 9 mph 1015.4mb 63f 61f
8:48 7 9 mph 1015.3mb 63f 61f
8:42 7 8 mph 1015.2mb 63f 61f
8:36 7 8 mph 1015.1mb 63f 61f
8:30 7 8 mph 1015mb 63f 61f
8:24 5 6 mph 1014.8mb 63f 61f
8:18  -  2 mph 1014.6mb 63f 61f
8:12  -  5 mph 1014.3mb 63f 61f
8:06 2 5 mph 1014.8mb 63f 61f
8:00 5 8 mph 1014.9mb 63f 61f
7:54 6 10 mph 1015mb 63f 61f
7:48 10 11 mph 1015.1mb 63f 61f
7:42  -  mph - 63f -
7:30 9
mph
1014.9mb - -
7:24 3 7 mph 1014.7mb 63f 61f
7:18 6 7 mph 1014.6mb 63f 61f
7:12 3 7 mph 1014.5mb 63f 61f
7:06 3 6 mph 1014.7mb 63f 61f
7:00 5 7 mph 1014.8mb 63f 61f
6:54 6 7 mph 1014.9mb 63f 61f
6:48 2
mph
1014.8mb - -
6:42 1 5 mph 1014.8mb 63f 61f
6:36 3 6 mph 1014.9mb 63f 60f
6:30 6 7 mph 1014.8mb 63f 60f
6:24 3 5 mph 1014.7mb 63f 61f
6:18 3 5 mph 1014.5mb 63f 60f
6:12 3 5 mph 1014.3mb 63f 61f
6:06 3 5 mph 1014.2mb 63f 61f
6:00 5
mph
1014.2mb 63f 61f
5:54 5 6 mph 1014.3mb 63f 61f
5:36 5 7 mph 1014.3mb 63f 61f
5:30 6 7 mph 1014.3mb 63f 61f
5:24 6 7 mph 1014.3mb 63f 61f
5:06 5 6 mph 1014.4mb 63f 61f
5:00 5 7 mph 1014.3mb 63f 61f
4:54 5 7 mph 1014.4mb 63f 61f
4:48 5 6 mph 1014.3mb 63f 61f
4:42 3 5 mph 1014.3mb 63f 61f
4:30 5 6 mph 1014.3mb 63f 61f
4:24 6
mph
1014.4mb 63f 61f
4:18 5 6 mph 1014.4mb 63f 61f
4:12 6 7 mph 1014.3mb 63f 61f
4:06 6
mph
1014.4mb 63f 61f
4:00 6 7 mph 1014.5mb 63f 60f
3:54 6
mph
1014.4mb 63f 61f
3:48 6 7 mph 1014.4mb 63f 60f
3:36 6 7 mph 1014.3mb 63f 60f
3:30 6 7 mph 1014.3mb 63f 60f
3:24 5 7 mph 1014.3mb 63f 61f
3:18 6 7 mph 1014.4mb 63f 61f
3:12 6 7 mph 1014.5mb 63f 61f
3:06 5
mph
1014.5mb 64f 61f
3:00 2 5 mph 1014.5mb 63f 61f
2:54 3 6 mph 1014.5mb 63f 61f
2:48 5 6 mph 1014.6mb 63f 61f
2:42 5 6 mph 1014.6mb 64f 61f
2:36 6
mph
1014.6mb 64f 61f
2:30 5 7 mph 1014.6mb 64f 61f
2:24 6 7 mph 1014.7mb 64f 61f
2:18 5 7 mph 1014.8mb 64f 61f
2:12 5 6 mph 1014.8mb 64f 61f
2:06 3 5 mph 1014.8mb 64f 60f
2:00 2 3 mph 1014.8mb 64f 60f
1:54 1 3 mph 1014.8mb 64f 60f
1:48 3
mph
1014.8mb 63f 60f
1:42 2 3 mph 1014.9mb 63f 60f
1:36 2 3 mph 1014.9mb 63f 60f
1:30 2 3 mph 1014.9mb 63f 60f
1:24 2 3 mph 1014.9mb 63f 60f
1:18 2
mph
1015mb 63f 60f
1:12 2
mph
1015mb 63f 60f
1:06 2 3 mph 1015.1mb 63f 60f
1:00 2 3 mph 1015.1mb 63f 60f
12:54 2
mph
1015.1mb 63f 60f
12:48 1 2 mph 1015.2mb 63f -
12:42 2
mph
1015.3mb 63f 60f
12:36 2 3 mph 1015.3mb 63f 60f
12:30 2 3 mph 1015.4mb 63f 60f
12:24 2
mph
1015.5mb 63f 60f
12:18 2
mph
1015.4mb 63f 60f
12:12 1 2 mph 1015.4mb 63f 60f
12:06 2
mph
1015.5mb 63f 60f
12:00 2 3 mph 1015.5mb 63f 60f
mar. 05/19 11:54 2 3 mph 1015.6mb 63f 60f
11:36 3 5 mph 1015.6mb 63f -
11:24 2
mph
1015.7mb 63f 61f
10:54 2 3 mph 1015.9mb 63f 61f
10:48 2 3 mph 1015.9mb 63f 61f
10:36 1 2 mph 1016mb 63f 61f
10:30 2 3 mph 1016mb 63f 61f
10:24 3 5 mph 1016mb 63f 61f
10:18 3 5 mph 1016mb 63f 61f
10:12 3 5 mph 1016mb 63f 61f
10:06 5 6 mph 1016.1mb 63f 61f
10:00 5 7 mph 1016.1mb 63f 61f
9:54 6 7 mph 1016.1mb 63f 61f
9:48 6 7 mph 1016.1mb 63f 61f
9:42 7 8 mph 1016mb 63f 61f
9:36 8 9 mph 1015.9mb 63f 61f
9:30 6 9 mph 1015.9mb 63f 61f
9:24 3 6 mph 1015.9mb 63f 62f
9:18  -  1 mph - - -
9:12  -  2 mph 1015.8mb 63f 61f
8:54 1 3 mph 1015.6mb 63f 61f
8:48 2
mph
1015.5mb 63f 61f
8:42 2 3 mph 1015.4mb 62f 61f
8:36 2 3 mph 1015.4mb 62f 61f
8:30 3
mph
1015.4mb 62f 61f
8:24 3 5 mph 1015.4mb 62f 61f
8:18 3 5 mph - - -
8:12 3 5 mph 1015.4mb 62f 61f
8:06 5 6 mph 1015.3mb 62f 61f
8:00 5 6 mph 1015.3mb 62f 61f
7:54 5 6 mph 1015.3mb 62f 61f
7:48 5 6 mph 1015.2mb 63f 61f
7:42 5 6 mph 1015.3mb 63f 61f
7:36 5 6 mph 1015.3mb 63f 61f
7:30 5 6 mph 1015.3mb 63f 61f
7:24 3 6 mph 1015.3mb 63f 61f
7:18 5 6 mph - - -
7:12 5 6 mph 1015.4mb 63f 62f
7:06 5 6 mph 1015.4mb 63f 62f
7:00 5 6 mph 1015.4mb 63f 62f
6:48 6 7 mph - - -
6:42 3 5 mph 1015.4mb 63f 62f
6:36 5 6 mph 1015.4mb 63f 62f
6:30 6
mph
1015.4mb 63f 62f
6:24 6 7 mph 1015.4mb 64f 62f
6:18 5 6 mph - - -
6:12 5 7 mph 1015.5mb 63f 63f
6:06 3 5 mph 1015.6mb 64f 63f
6:00 5 6 mph 1015.6mb 64f 63f
5:54 5 6 mph 1015.6mb 64f 62f
5:48 6 7 mph 1015.6mb - -
5:42 6 7 mph 1015.7mb 64f 62f
5:36 5 6 mph 1015.6mb 64f 63f
5:30 3 7 mph 1015.7mb 64f 63f
5:24 6 7 mph 1015.8mb 64f 63f
5:18 6 7 mph 1015.9mb 64f 62f
5:12 7 8 mph 1015.9mb 64f 62f
5:06 6 8 mph 1016mb 64f 62f
5:00 6 8 mph 1016mb 64f 62f
4:54 6 8 mph 1016mb 64f 62f
4:48 6 8 mph - - -
4:42 7 9 mph 1016.1mb 64f 62f
4:36 8 11 mph 1016.1mb 65f 62f
4:30 7 10 mph 1016.3mb 64f 62f
4:24 7 8 mph 1016.3mb 64f 61f
4:18 6 8 mph - - -
4:12 7 8 mph 1016.4mb 64f 61f
4:06 7 8 mph 1016.5mb 64f 61f
4:00 8 11 mph 1016.6mb 64f 61f
3:54 8 9 mph 1016.6mb 64f 62f
3:48 8 10 mph 1016.8mb 64f 61f
3:42 7 10 mph 1016.8mb 64f 61f
3:36 8 10 mph 1016.9mb 64f 61f
3:30 9 13 mph 1016.9mb 64f 61f
3:24 9 14 mph 1017mb 64f 61f
3:18 10 13 mph 1017.1mb 64f 61f
3:12 10 14 mph 1017.2mb 64f 61f
3:06 10 11 mph 1017.2mb 64f 61f
3:00 9 11 mph 1017.2mb 64f 62f
2:54 9 10 mph 1017.2mb 64f 61f
2:48 9 11 mph 1017.2mb - -
2:42 8 11 mph 1017.3mb 63f 62f
2:36 10 13 mph 1017.4mb 64f 62f
2:30 11 14 mph 1017.5mb 63f 62f
2:24 11 13 mph 1017.5mb 64f 61f
2:18 11 13 mph 1017.4mb 64f 61f
2:12 9 11 mph 1017.3mb 64f 62f
2:06 9 10 mph 1017.2mb 64f 62f
2:00 9 10 mph 1017.3mb 64f 61f
1:54 8 10 mph 1017.2mb 64f 62f
1:48 9 10 mph - - -
1:42 8 9 mph 1017.3mb 64f 62f